x

9412110 - Port San Luis, Ca (pslc1) Weather Station

12:54pm - Fri 29th Jul 2016 All times are PDT. -7 hours from GMT.

  • Wind
    3mph, 5mph gusts
  • Sea Temp 59°f
  • Air Temp 64°f
  • Sea Pressure 1011.9mb
  • 9412110 - Port San Luis, Ca
  • 9412110 - Port San Luis, Ca

More Historic Weather Station data

Upgrade to MSW Pro to gain access to the past 30 days of data for over 8000 Wavebouys and Weather Stations around the globe.

Join Pro

Comparision Forecast

View Surf forecast
   
Fri 07/29 12:54pm 3 5 mph 1011.9mb 59f 64f
12:48pm 3
mph
1012mb 59f 63f
12:42pm 2 3 mph 1012mb 59f 63f
12:36pm 3
mph
1012.1mb 59f 62f
12:30pm 3 5 mph 1012.1mb 59f 62f
12:24pm 5 6 mph 1012.2mb 59f 61f
12:18pm 6 7 mph 1012.2mb 59f 61f
12:12pm 6 8 mph 1012.2mb 59f 61f
12:06pm 5 7 mph 1012.3mb 59f 62f
12:00pm 3 5 mph 1012.3mb 59f 63f
11:54am  -  2 mph 1012.3mb 59f 65f
11:48am  -  2 mph 1012.5mb 59f 65f
11:42am 2 3 mph 1012.5mb 59f 63f
11:36am 2 3 mph 1012.5mb 59f 62f
11:30am 2 3 mph 1012.5mb 59f 61f
11:24am 2 3 mph 1012.5mb 59f 61f
11:18am 2 5 mph 1012.6mb 59f 60f
11:12am 3 5 mph 1012.7mb 59f 60f
11:06am 3 5 mph 1012.8mb 59f 60f
11:00am 3 5 mph 1012.9mb 59f 61f
10:54am 3 5 mph 1012.9mb 59f 60f
10:48am 3 5 mph 1013mb 59f 59f
10:42am 3 5 mph 1013mb 59f 60f
10:36am 5 6 mph 1013mb 59f 59f
10:30am 2 3 mph 1013mb 59f 61f
10:24am 1 2 mph 1013mb 59f 61f
10:18am 2 6 mph 1012.9mb 59f 59f
10:12am 3 5 mph 1012.9mb 59f 59f
10:06am 5 6 mph 1012.8mb 59f 58f
10:00am 1 2 mph 1012.8mb 59f 60f
9:54am 2 3 mph 1012.8mb 59f 60f
9:48am 2
mph
1012.9mb 59f 60f
9:42am  -  3 mph 1012.9mb 59f 60f
9:36am 1 5 mph 1012.9mb 59f 59f
9:30am 3 5 mph 1012.9mb 59f 58f
9:24am 2 5 mph 1012.8mb 59f 57f
9:18am 5 6 mph 1012.8mb 59f 57f
9:12am 3 6 mph 1012.8mb 59f 56f
9:06am 5 6 mph 1012.8mb 59f 56f
9:00am 3 5 mph 1012.8mb 59f 56f
8:54am 2 3 mph 1012.8mb 59f 56f
8:48am 2
mph
1012.9mb 59f 56f
8:42am 2
mph
1013mb 59f 56f
8:36am 3 5 mph 1013mb 59f 56f
8:30am  -  1 mph 1013.1mb 59f 56f
8:24am  -  3 mph 1013.1mb 59f 56f
8:18am 1 2 mph 1013.1mb 59f 56f
8:12am 2 3 mph 1013mb 59f 55f
8:06am 2 3 mph 1012.9mb 59f 55f
8:00am 2 3 mph 1012.9mb 59f 55f
7:54am 2 3 mph 1012.9mb 59f 55f
7:48am 2 3 mph 1012.9mb 59f 55f
7:42am 2 3 mph 1012.8mb 59f 55f
7:36am  -  3 mph 1012.8mb 59f 55f
7:30am 2 3 mph 1012.7mb 59f 55f
7:24am 1 5 mph 1012.6mb 59f 55f
7:18am 3 5 mph 1012.8mb 59f 55f
7:12am 5 6 mph 1012.8mb 58f 55f
7:06am 5 6 mph 1012.7mb 58f 55f
7:00am 3
mph
1012.6mb 58f 55f
6:54am 3 5 mph 1012.6mb 58f 55f
6:48am 3 5 mph 1012.6mb 58f 55f
6:42am 3 5 mph 1012.5mb 58f 55f
6:36am 3
mph
1012.5mb 58f 55f
6:30am 3
mph
1012.6mb 58f 55f
6:24am 3
mph
1012.6mb 58f 55f
6:18am 2
mph
1012.5mb 58f 55f
6:12am 1 2 mph 1012.5mb 58f 55f
6:06am 2 3 mph 1012.4mb 58f 55f
6:00am 2 3 mph 1012.3mb 58f 55f
5:54am 1 3 mph 1012.2mb 58f 55f
5:48am 2 3 mph 1012.2mb 58f 55f
5:42am 3
mph
1012.2mb 58f 55f
5:36am 2 5 mph 1012.2mb 58f 55f
5:30am 2 3 mph 1012.2mb 58f 55f
5:24am 1 2 mph 1012.1mb 58f 55f
5:18am 3
mph
1012.1mb 58f 55f
5:12am 3 5 mph 1012.1mb 58f 55f
5:06am 3 5 mph 1012mb 58f 55f
5:00am 3 5 mph 1012mb 58f 55f
4:54am 3 5 mph 1012mb 58f 56f
4:48am 3 5 mph 1011.8mb 58f 56f
4:42am 2 3 mph 1011.8mb 58f 56f
4:36am 2
mph
1011.7mb 59f 56f
4:30am  -  3 mph 1011.7mb 59f 56f
4:24am 2 3 mph 1011.7mb 59f 56f
4:18am 2 3 mph 1011.7mb 59f 56f
4:12am 3 5 mph 1011.7mb 59f 56f
4:06am 2 3 mph 1011.7mb 59f 56f
4:00am 1 3 mph 1011.7mb 59f 56f
3:54am 1 3 mph 1011.5mb 59f 56f
3:48am 2 3 mph 1011.6mb 59f 56f
3:42am  -  2 mph 1011.6mb 59f 56f
3:36am 1 2 mph 1011.6mb 59f 56f
3:30am 2 3 mph 1011.7mb 59f 56f
3:24am 2 5 mph 1011.6mb 59f 56f
3:18am 3 5 mph 1011.7mb 59f 56f
3:12am 3 5 mph 1011.8mb 59f 56f
3:06am 3 5 mph 1011.9mb 60f 56f
3:00am 1 2 mph 1011.9mb 60f 56f
2:54am 2 5 mph 1011.8mb 60f 56f
2:48am 2 3 mph 1011.8mb 60f 56f
2:42am 2 3 mph 1011.8mb 60f 56f
2:36am 2 3 mph 1011.9mb 60f 56f
2:30am 1 2 mph 1012mb 60f 56f
2:24am 3 5 mph 1012.1mb 60f 56f
2:18am 2 5 mph 1012.1mb 60f 56f
2:12am  -  2 mph 1012.1mb 60f 56f
2:06am  -  3 mph 1012.1mb 60f 56f
2:00am 2
mph
1012.1mb 60f 56f
1:54am 2 5 mph 1012.1mb 60f 56f
1:48am 1 3 mph 1012.1mb 60f 56f
1:42am  -  2 mph 1012.2mb 60f 56f
1:36am 2 5 mph 1012.2mb 60f 55f
1:30am 3 5 mph 1012.2mb 61f 56f
1:24am 1 5 mph 1012.3mb 61f 55f
1:18am 2 5 mph 1012.3mb 61f 56f
1:12am 2
mph
1012.2mb 61f 56f
1:06am 2 3 mph 1012.3mb 61f 56f
1:00am 2 5 mph 1012.4mb 61f 56f
12:54am 5
mph
1012.4mb 61f 56f
12:48am 1 3 mph 1012.4mb 61f 56f
12:42am  -  5 mph 1012.5mb 61f 56f
12:36am 3
mph
1012.5mb 61f 56f
12:30am 2 3 mph 1012.6mb 61f 56f
12:24am 2 3 mph 1012.6mb 61f 56f
12:18am 2
mph
1012.7mb 61f 56f
12:12am 1 5 mph 1012.7mb 61f 56f
12:06am 3 5 mph 1012.8mb 61f 56f
12:00am 3 5 mph 1012.8mb 61f 56f
Thu 07/28 11:54pm 2 5 mph 1012.8mb 61f 56f
11:48pm 2 3 mph 1012.8mb 61f -
11:42pm 3
mph
1012.8mb 61f -
11:36pm 2 3 mph 1012.8mb 61f -
11:30pm 3 5 mph 1012.8mb 61f 56f
11:24pm 3 5 mph 1012.8mb 61f 56f
11:18pm 3 5 mph 1012.8mb 61f 56f
11:12pm 3 6 mph 1012.9mb 60f 56f
11:06pm 5 6 mph 1012.9mb 61f 56f
11:00pm 5 6 mph 1012.9mb 61f 56f
10:54pm 2 3 mph 1012.9mb 60f 57f
10:48pm 2 5 mph 1012.9mb 60f -
10:42pm 3 6 mph 1013mb 60f -
10:36pm 2 5 mph 1013.1mb 59f -
10:30pm 2 3 mph 1013mb 59f 57f
10:24pm 3 5 mph 1013mb 59f 57f
10:18pm  -  3 mph 1013mb 58f 57f
10:12pm  -  5 mph 1013mb 58f 57f
10:06pm 5 6 mph 1013mb 58f 57f
10:00pm 3 7 mph 1013mb 58f 57f
9:54pm 6 8 mph 1012.9mb 58f 57f
9:48pm 6 8 mph 1012.9mb 58f 57f
9:42pm 7 8 mph 1012.8mb 58f 57f
9:36pm 6 8 mph 1012.8mb 58f 57f
9:30pm 7 8 mph 1012.8mb 58f 57f
9:24pm 6 8 mph 1012.7mb 57f 57f
9:18pm 5 7 mph 1012.6mb 57f 58f
9:12pm 6 8 mph 1012.7mb 57f 58f
9:06pm 7 9 mph 1012.5mb 57f 58f
9:00pm 8 9 mph 1012.6mb 57f 58f
8:54pm 8 9 mph 1012.5mb 57f 58f
8:48pm 8 9 mph 1012.6mb 57f 58f
8:42pm 8 9 mph 1012.6mb 57f 58f
8:36pm 6 8 mph 1012.5mb 57f 58f
8:30pm 5 6 mph 1012.4mb 57f 58f
8:24pm 5 6 mph 1012.3mb 57f 58f
8:18pm  -  mph 1012.3mb 57f -
8:12pm  -  mph 1012.2mb 57f -
8:06pm  -  mph 1012.2mb 57f -
8:00pm 7
mph
- 57f -
7:54pm 6 7 mph - 57f -
7:48pm 6 7 mph 1012.3mb 57f -
7:42pm 6 7 mph 1012.3mb 57f -
7:36pm 7 8 mph 1012.2mb 57f -
7:30pm 6 7 mph - - -
7:24pm 6 7 mph - - -
7:18pm  -  mph - 58f 60f
7:12pm  -  mph - 58f 60f
7:06pm  -  mph - 58f 60f
7:00pm  -  mph 1012.1mb - -
6:54pm  -  mph 1012.1mb - -
6:48pm 7
mph
1012.1mb 59f -
6:42pm 6 7 mph 1012.2mb 59f -
6:36pm 6 8 mph 1012.2mb 59f -
6:30pm 7 8 mph 1012.2mb - -
6:24pm 6 8 mph 1012.2mb - -
6:18pm 6 7 mph - 60f -
6:12pm 3 6 mph - 60f -
6:06pm 3 6 mph - 60f -
6:00pm  -  mph - 60f 62f
5:54pm  -  mph - 60f 62f
5:48pm 6 7 mph 1012.4mb 60f -
5:42pm 6
mph
1012.4mb 60f -
5:36pm 2 6 mph 1012.4mb 60f -
5:30pm 1 5 mph 1012.4mb 60f -
5:24pm 3 6 mph 1012.4mb 60f -
5:18pm 3
mph
1012.4mb 60f -
5:12pm 2 3 mph 1012.4mb 60f -
5:06pm 3 6 mph 1012.5mb 60f -
5:00pm  -  mph - 60f 63f
4:54pm  -  mph - 60f 62f
4:48pm 6 8 mph 1012.7mb - -
4:42pm 5 6 mph 1012.8mb - -
4:36pm 2 6 mph 1012.7mb - -
4:30pm 3
mph
- - -
4:24pm  -  2 mph - - -
4:18pm  -  2 mph - 60f -
4:12pm 2 6 mph - 60f -
4:06pm 5 6 mph - 59f -
4:00pm  -  mph - 59f -
3:54pm  -  mph - 59f -
3:48pm  -  mph - 59f -
3:42pm  -  mph - 59f -
3:36pm  -  mph - 59f -
3:30pm 8 9 mph 1013.2mb 59f -
3:24pm 3 6 mph 1013.2mb 59f -
3:18pm 5 8 mph 1013.2mb 59f 63f
3:12pm 8 10 mph 1013.2mb 59f 62f
3:06pm 8 9 mph 1013.3mb 59f 62f
3:00pm 7 9 mph 1013.4mb 59f -
2:54pm 7
mph
1013.5mb 59f -
2:48pm 7 8 mph - 58f 62f
2:42pm 7 8 mph - 58f 63f
2:36pm 7 8 mph - 58f 62f
2:30pm 6 8 mph 1013.7mb 58f 62f
2:24pm 7 8 mph 1013.7mb 58f 62f
2:18pm 8 9 mph 1013.8mb 58f 62f
2:12pm 8 9 mph 1013.8mb 58f 63f
2:06pm 6 7 mph 1013.7mb 58f 64f
2:00pm 5 6 mph 1013.7mb 58f 64f
1:54pm 5 6 mph 1013.8mb 58f 63f
1:48pm 6 7 mph 1013.9mb 58f 62f
1:42pm 6 7 mph 1013.9mb 58f 62f
1:36pm 6 7 mph 1014mb 58f 62f
1:30pm 6 7 mph 1014mb 58f 62f
1:24pm 6 7 mph 1014mb 58f 63f
1:18pm 6
mph
1014.1mb 58f 63f
1:12pm 6
mph
1014.2mb 58f 62f
1:06pm 6 7 mph 1014.2mb 58f 62f
1:00pm 5 6 mph 1014.2mb 58f 62f
12:54pm 3 5 mph 1014.2mb 58f 63f
12:48pm 5
mph
1014.2mb 58f 62f
12:42pm 2 3 mph 1014.2mb 58f 62f
12:36pm 2 3 mph 1014.2mb 58f 62f
12:30pm 3
mph
1014.3mb 58f 62f
12:24pm 2 3 mph 1014.3mb 58f 62f
12:18pm 3
mph
1014.3mb 58f 62f
12:12pm 2 3 mph 1014.4mb 58f 61f
12:06pm 2 3 mph 1014.4mb 58f 62f
12:00pm 2 5 mph 1014.4mb 58f 63f
11:54am 2 5 mph 1014.4mb 58f 62f
11:48am 2 3 mph 1014.5mb 58f 62f
11:42am 2 5 mph 1014.5mb 58f 60f
11:36am 5 6 mph 1014.5mb 58f 59f
11:30am 6 7 mph 1014.5mb 58f 59f
11:24am 5 7 mph 1014.6mb 58f 60f
11:18am 6 7 mph 1014.6mb 59f 59f
11:12am 6 7 mph 1014.6mb 59f 58f
11:06am 7 8 mph 1014.6mb 59f 57f
11:00am 6 7 mph 1014.6mb 59f 57f
10:54am 6 7 mph 1014.5mb 59f 57f
10:48am 2 3 mph 1014.6mb 59f 60f
10:42am 2 6 mph 1014.6mb 59f 58f
10:36am 6 7 mph 1014.6mb 59f 57f
10:30am 2 5 mph 1014.7mb 59f 58f
10:24am 2 5 mph 1014.7mb 59f 57f
10:18am 3
mph
1014.7mb 59f 56f
10:12am 2 3 mph 1014.6mb 59f 57f
10:06am 1 2 mph 1014.6mb 59f 57f
10:00am 2 3 mph 1014.7mb 59f 56f
9:54am 2 3 mph 1014.7mb 59f 56f
9:48am 2 5 mph 1014.7mb 59f 56f
9:42am 2 3 mph 1014.7mb 59f 55f
9:36am 2 5 mph 1014.8mb 59f 56f
9:30am 1 2 mph 1014.8mb 59f 55f
9:24am 2 3 mph 1014.8mb 59f 55f
9:18am 2
mph
1014.8mb 59f 55f
9:12am 2
mph
1014.8mb 59f 55f
9:06am 2 3 mph 1014.8mb 59f 54f
9:00am 2 3 mph 1014.8mb 59f 54f
8:54am 1 3 mph 1014.8mb 59f 55f
8:48am 2 3 mph 1014.8mb 59f 55f
8:42am 3 5 mph 1014.8mb 59f 54f
8:36am 2 5 mph 1014.8mb 59f 54f
8:30am 2 5 mph 1014.8mb 59f 54f
8:24am 3 5 mph 1014.8mb 59f 54f
8:18am 3 5 mph 1014.9mb 59f 54f
8:12am 5
mph
1014.8mb 59f 54f
8:06am 3 5 mph 1014.7mb 59f 54f
8:00am 3 5 mph 1014.7mb 59f 54f
7:54am 5 6 mph 1014.6mb 58f 54f
7:48am 3 5 mph 1014.4mb 58f 55f
7:42am 1 2 mph 1014.4mb 58f 55f
7:36am  -  3 mph 1014.3mb 58f 55f
7:30am 2 6 mph 1014.2mb 58f 55f
7:24am 2 3 mph 1014.1mb 58f 55f
7:18am 3
mph
1014.1mb 58f 55f
7:12am 2 3 mph 1014.1mb 58f 55f
7:06am  -  3 mph 1014.1mb 58f 55f
7:00am 3 5 mph 1014.1mb 58f 54f
6:54am 2 3 mph 1014.1mb 58f 55f
6:48am 1 2 mph 1014.1mb 57f 55f
6:42am 2
mph
1014.1mb 57f 55f
6:36am  -  1 mph 1014.1mb 57f 55f
6:30am 1 2 mph 1014.1mb 57f 55f
6:24am 3 5 mph 1013.9mb 57f 54f
6:18am 2 3 mph 1013.8mb 57f 55f
6:12am 2 3 mph 1013.7mb 57f 55f
6:06am 3 5 mph 1013.6mb 57f 55f
6:00am 2 3 mph 1013.6mb 57f 55f
5:54am 2
mph
1013.6mb 57f 55f
5:48am  -  2 mph 1013.7mb 57f 55f
5:42am  -  1 mph 1013.6mb 57f 55f
5:36am 2 3 mph 1013.4mb 57f 55f
5:30am 2 5 mph 1013.4mb 57f 55f
5:24am 3 5 mph 1013.3mb 57f 55f
5:18am 3 5 mph 1013.4mb 57f 55f
5:12am 3 5 mph 1013.3mb 57f 55f
5:06am 2 3 mph 1013.2mb 57f 55f
5:00am 1 3 mph 1013.3mb 57f 55f
4:54am 2 3 mph 1013.3mb 57f 55f
4:48am 2 3 mph 1013.3mb 58f 55f
4:42am 1 3 mph 1013.3mb 58f 55f
4:36am  -  2 mph 1013.3mb 58f 55f
4:30am 1 2 mph 1013.4mb 58f 55f
4:24am 1 2 mph 1013.3mb 58f 55f
4:18am  -  1 mph 1013.4mb 58f 55f
4:12am  -  1 mph 1013.4mb 58f 55f
4:06am  -  1 mph 1013.5mb 58f 55f
4:00am  -  2 mph 1013.5mb 58f 55f
3:54am 1 2 mph 1013.5mb 58f 55f
3:48am 1 2 mph 1013.5mb 58f 55f
3:42am 2 3 mph 1013.6mb 58f 55f
3:36am 2 3 mph 1013.6mb 58f 55f
3:30am 2 3 mph 1013.6mb 59f 55f
3:24am 3
mph
1013.6mb 59f 55f
3:18am  -  1 mph 1013.5mb 59f 55f
3:12am  -  1 mph 1013.5mb 59f 55f
3:06am  -  2 mph 1013.5mb 59f 55f
3:00am 2
mph
1013.6mb 59f 55f
2:54am  -  1 mph 1013.6mb 59f 55f
2:48am 1 2 mph 1013.6mb 59f 55f
2:42am 1 3 mph 1013.6mb 59f 55f
2:36am  -  2 mph 1013.6mb 59f 55f
2:30am 2 3 mph 1013.6mb 59f 55f
2:24am 1 2 mph 1013.6mb 59f 55f
2:18am 1 2 mph 1013.6mb 60f 55f
2:12am  -  1 mph 1013.6mb 60f 55f
2:06am 1 2 mph 1013.5mb 60f 55f
2:00am 1 3 mph 1013.5mb 60f 55f
1:54am 3 5 mph 1013.5mb 60f 55f
1:48am 5 6 mph 1013.4mb 60f 55f
1:42am 3 5 mph 1013.3mb 60f 55f
1:36am 3
mph
1013.2mb 60f 56f
1:30am  -  1 mph 1013.4mb 60f 55f
1:24am  -  1 mph 1013.5mb 60f 55f
1:18am  -  1 mph 1013.7mb 60f 55f
1:12am  -  2 mph 1013.7mb 60f 55f
1:06am 1 2 mph 1013.7mb 60f 55f
1:00am 2
mph
1013.8mb 60f 55f
12:54am 2 3 mph 1013.8mb 60f 55f
12:48am 1 2 mph 1013.8mb 60f 55f
12:42am 2 3 mph 1013.9mb 60f 55f
12:36am 2 3 mph 1013.9mb 60f 56f
12:30am 2 3 mph 1014mb 60f 56f
12:24am 1 2 mph 1014.1mb 60f 56f
12:18am 1 3 mph 1014mb 60f 56f
12:12am 3 5 mph 1014.1mb 60f 56f
12:06am 3 5 mph 1014.1mb 60f 55f
12:00am 2 3 mph 1014.2mb 60f 56f
Wed 07/27 11:54pm 2 3 mph 1014.1mb 60f 56f
11:48pm 1 3 mph 1014.1mb 60f -
11:42pm 2
mph
1014.1mb 60f -
11:36pm 1 3 mph 1014mb 60f -
11:30pm 2 3 mph 1014mb 60f 56f
11:24pm 1 2 mph 1013.9mb 60f 56f
11:18pm 2 3 mph 1013.9mb 60f 56f
11:12pm 2 3 mph 1014mb 60f 56f
11:06pm 2 5 mph 1014mb 60f 56f
11:00pm 3 5 mph 1014mb 60f 56f
10:54pm 5 6 mph 1014.1mb 60f 56f
10:48pm 5 7 mph 1014.2mb 60f -
10:42pm 5 6 mph 1014.2mb 60f -
10:36pm 5 6 mph 1014.2mb 60f -
10:30pm 5 6 mph 1014.2mb 60f 56f
10:24pm 5 6 mph 1014.2mb 60f 56f
10:18pm 5 6 mph 1014.2mb 60f 56f
10:12pm 5 6 mph 1014.2mb 60f 56f
10:06pm 5 8 mph 1014.2mb 60f 56f
10:00pm 6 8 mph 1014.3mb 60f 56f
9:54pm 7 8 mph 1014.2mb 60f 56f
9:48pm 6 8 mph 1014.1mb 60f 56f
9:42pm 6 7 mph 1014.1mb 60f 56f
9:36pm 6 7 mph 1014.1mb 59f 57f
9:30pm 3 6 mph 1014.1mb 59f 57f
9:24pm 6 7 mph 1014.1mb 59f 57f
9:18pm 6 7 mph 1014mb 58f 57f
9:12pm 5 6 mph 1014.1mb 58f 57f
9:06pm 3 5 mph 1014mb 58f 58f
9:00pm 3 5 mph 1014mb 58f 58f
8:54pm 2 3 mph 1014mb 58f 58f
8:48pm 1 2 mph 1014mb 58f 59f
8:42pm 1 3 mph 1013.9mb 57f 58f
8:36pm 2 6 mph 1013.9mb 57f 59f
8:30pm 5 6 mph 1013.9mb 57f 59f
8:24pm 5 7 mph 1013.9mb 57f 59f
8:18pm 5 7 mph - 57f -
8:12pm 7
mph
- 57f -
8:06pm 6 7 mph - 57f -
8:00pm 6 7 mph 1013.8mb 57f -
7:54pm 6 7 mph 1013.8mb 57f -
7:48pm 6
mph
- - -
7:42pm 5 6 mph - - -
7:36pm 5 6 mph - - -
7:30pm 3
mph
- - -
7:24pm 3 6 mph - - -
7:18pm 5 6 mph - 57f -
7:12pm 3 6 mph - 57f -
7:06pm 5 7 mph - 57f -
7:00pm  -  mph - 57f -
6:54pm  -  mph - 57f -
6:48pm 6 7 mph - - -
6:42pm 6 7 mph - - -
6:36pm 3 5 mph - - -
6:30pm  -  mph 1013.4mb - -
6:24pm  -  mph 1013.4mb - -
6:18pm 2 3 mph - - -
6:12pm 2 5 mph - - -
6:06pm 6 7 mph - - -
6:00pm  -  mph - 57f -
5:54pm  -  mph - 57f -
5:48pm 2 5 mph 1013.4mb - -
5:42pm 3 5 mph 1013.4mb - -
5:36pm 3 5 mph 1013.5mb - -
5:30pm  -  mph 1013.6mb 57f -
5:24pm  -  mph 1013.6mb 57f -
5:18pm  -  mph - 57f 64f
5:12pm  -  mph - 57f 62f
5:06pm  -  mph - 57f 63f
5:00pm  -  mph - 57f 63f
4:54pm  -  mph - 57f 63f
4:48pm  -  mph 1013.8mb - -
4:42pm  -  mph 1013.8mb - -
4:36pm  -  mph 1013.9mb - -
4:30pm 3 5 mph - 57f -
4:24pm 3
mph
- 57f -
4:18pm  -  mph - 57f 63f
4:12pm  -  mph - 57f 66f
4:06pm  -  mph - 57f 64f
4:00pm  -  mph - 57f 63f
3:54pm  -  mph - 57f 62f
3:48pm  -  mph - 57f 63f
3:42pm  -  mph - 57f 63f
3:36pm  -  mph - 57f 63f
3:30pm 2 3 mph - - -
3:24pm 3 5 mph - - -
3:18pm 5 6 mph 1014.5mb 57f 61f
3:12pm 6 9 mph 1014.6mb 57f 61f
3:06pm 8 9 mph 1014.6mb 57f 60f
3:00pm  -  mph - 57f -
2:54pm  -  mph - 57f -
2:48pm 7 9 mph - 57f 63f
2:42pm 7 9 mph - 57f 63f
2:36pm 6 10 mph - 57f 65f
2:30pm 8 9 mph 1014.7mb 57f 63f
2:24pm 6 7 mph 1014.7mb 57f 65f
2:18pm 1 2 mph 1014.6mb 57f 67f
2:12pm 2 6 mph 1014.7mb 57f 67f
2:06pm 2 7 mph 1014.7mb 57f 67f
2:00pm 6 7 mph 1014.7mb 57f 65f
1:54pm 6 7 mph 1014.6mb 57f 66f
1:48pm 5 6 mph 1014.7mb 58f 67f
1:42pm 3 5 mph 1014.9mb 58f 66f
1:36pm 3 6 mph 1014.9mb 58f 67f
1:30pm 5
mph
1015mb 58f 65f
1:24pm 3 6 mph 1014.9mb 58f 65f
1:18pm 5 7 mph 1014.9mb 58f 65f
1:12pm 6 8 mph 1014.8mb 58f 66f
1:06pm 6 7 mph 1014.7mb 58f 65f
1:00pm 5 6 mph 1014.8mb 58f 65f
12:54pm 3
mph
1014.9mb 58f 65f
12:48pm  -  2 mph 1014.7mb 58f 66f
12:42pm 2 3 mph 1014.7mb 58f 65f
12:36pm 2 6 mph 1014.7mb 58f 64f
12:30pm 5 6 mph 1014.7mb 58f 62f
12:24pm 6 7 mph 1014.8mb 58f 62f
12:18pm 6 8 mph 1014.8mb 58f 62f
12:12pm 6 7 mph 1014.8mb 58f 63f
12:06pm 3 6 mph 1014.8mb 58f 65f
12:00pm 3 5 mph 1014.8mb 58f 65f
11:54am 5
mph
1014.8mb 58f 63f
11:48am 3
mph
1014.8mb 58f 64f
11:42am 3 5 mph 1014.8mb 58f 64f
11:36am 3 5 mph 1014.8mb 58f 64f
11:30am 3 5 mph 1014.8mb 58f 62f
11:24am 2 5 mph 1014.8mb 58f 64f
11:18am 5 6 mph 1014.8mb 58f 62f
11:12am 5
mph
1014.8mb 58f 61f
11:06am 3 5 mph 1014.8mb 58f 62f
11:00am 3 6 mph 1014.8mb 58f 62f
10:54am 3 5 mph 1014.7mb 58f 62f
10:48am 2
mph
1014.7mb 58f 63f
10:42am 1 2 mph 1014.7mb 58f 62f
10:36am 2 6 mph 1014.7mb 58f 60f
10:30am 5
mph
1014.7mb 58f 60f
10:24am 2 3 mph 1014.7mb 58f 58f
10:18am 2 3 mph 1014.6mb 58f 58f
10:12am 1 2 mph 1014.6mb 58f 59f
10:06am 1 2 mph 1014.7mb 58f 59f
10:00am 1
mph
1014.7mb 58f 59f
9:54am  -  1 mph 1014.7mb 58f 59f
9:48am  -  1 mph 1014.7mb 58f 59f
9:42am  -  2 mph 1014.8mb 58f 58f
9:36am 2 3 mph 1014.8mb 58f 57f
9:30am 2 3 mph 1014.8mb 58f 57f
9:24am 1 2 mph 1014.8mb 58f 57f
9:18am  -  2 mph 1014.8mb 57f 57f
9:12am 1 2 mph 1014.8mb 57f 55f
9:06am 2 3 mph 1014.7mb 57f 56f
9:00am  -  1 mph 1014.5mb 57f 56f
8:54am  -  2 mph 1014.5mb 57f 56f
8:48am  -  2 mph 1014.4mb 57f 55f
8:42am  -  1 mph 1014.3mb 57f 56f
8:36am 1 2 mph 1014.3mb 57f 55f
8:30am  -  2 mph 1014.3mb 57f 55f
8:24am 1 3 mph 1014.3mb 57f 55f
8:18am 2 3 mph 1014.2mb 57f 55f
8:12am 2 3 mph 1014.2mb 57f 55f
8:06am  -  1 mph 1014.1mb 57f 55f
8:00am  -  2 mph 1014.1mb 57f 55f
7:54am 1 2 mph 1014.1mb 57f 55f
7:48am  -  2 mph 1014.1mb 57f 55f
7:42am 1 2 mph 1014mb 57f 55f
7:36am 1 3 mph 1013.9mb 57f 55f
7:30am 2
mph
1013.9mb 57f 55f
7:24am 1 2 mph 1013.8mb 57f 55f
7:18am 2 3 mph 1013.8mb 57f 55f
7:12am 2
mph
1013.8mb 57f 55f
7:06am  -  1 mph 1013.8mb 57f 55f
7:00am  -  1 mph 1013.8mb 57f 55f
6:54am  -  1 mph 1013.7mb 57f 55f
6:48am  -  1 mph 1013.7mb 57f 55f
6:42am  -  2 mph 1013.6mb 57f 55f
6:36am 1 3 mph 1013.4mb 57f 55f
6:30am 2 3 mph 1013.4mb 57f 55f
6:24am 2
mph
1013.4mb 57f 55f
6:18am  -  2 mph 1013.4mb 57f 54f
6:12am 1 2 mph 1013.4mb 57f 54f
6:06am 2 5 mph 1013.3mb 57f 54f
6:00am 3 5 mph 1013.2mb 57f 54f
5:54am 3 5 mph 1013.1mb 57f 54f
5:48am 5 6 mph 1013.1mb 57f 54f
5:42am 2 3 mph 1013mb 57f 55f
5:36am 3 5 mph 1013mb 57f 55f
5:30am 2
mph
1012.9mb 57f 54f
5:24am 1 2 mph 1012.9mb 57f 55f
5:18am 2 3 mph 1012.9mb 57f 54f
5:12am 3 5 mph 1012.8mb 57f 54f
5:06am 2 3 mph 1012.7mb 57f 55f
5:00am 2 3 mph 1012.7mb 57f 55f
4:54am 1 2 mph 1012.6mb 57f 55f
4:48am 1 3 mph 1012.6mb 57f 55f
4:42am  -  2 mph 1012.5mb 57f 55f
4:36am  -  2 mph 1012.5mb 57f 55f
4:30am 1 2 mph 1012.6mb 57f 55f
4:24am  -  2 mph 1012.4mb 57f 55f
4:18am 3 5 mph 1012.4mb 57f 54f
4:12am 3 5 mph 1012.4mb 57f 55f
4:06am 1 2 mph 1012.6mb 57f 55f
4:00am 2 3 mph 1012.6mb 57f 55f
3:54am 2 6 mph 1012.6mb 57f 55f
3:48am 5 6 mph 1012.5mb 57f 55f
3:42am 5
mph
1012.6mb 57f 55f
3:36am 3 5 mph 1012.6mb 57f 55f
3:30am 3 5 mph 1012.6mb 57f 55f
3:24am 2 3 mph 1012.6mb 57f 55f
3:18am 1 2 mph 1012.6mb 57f 55f
3:12am 2 3 mph 1012.6mb 57f 55f
3:06am 1 2 mph 1012.5mb 57f 55f
3:00am 2 3 mph 1012.5mb 57f 55f
2:54am 2
mph
1012.5mb 57f 55f
2:48am 2 5 mph 1012.5mb 57f 55f
2:42am 3 5 mph 1012.6mb 57f 55f
2:36am 2 3 mph 1012.5mb 57f 55f
2:30am 2 3 mph 1012.4mb 57f 55f
2:24am 2
mph
1012.4mb 58f 55f
2:18am 1 2 mph 1012.5mb 58f 55f
2:12am  -  mph 1012.6mb 58f 55f
2:06am  -  2 mph 1012.6mb 58f 55f
2:00am 1 2 mph 1012.6mb 58f 55f
1:54am 1
mph
1012.7mb 57f 55f
1:48am  -  mph 1012.6mb 57f 55f
1:42am  -  2 mph 1012.6mb 57f 55f
1:36am 2 3 mph 1012.7mb 57f 55f
1:30am 2 3 mph 1012.6mb 57f 55f
1:24am 2 3 mph 1012.6mb 57f 55f
1:18am 2 3 mph 1012.7mb 57f 55f
1:12am 2 3 mph 1012.8mb 57f 55f
1:06am 3
mph
1013mb 57f 55f
1:00am 2 3 mph 1013mb 57f 55f
12:54am 3 5 mph 1013mb 57f 55f
12:48am 3
mph
1013mb 57f 55f
12:42am 2 3 mph 1012.9mb 57f 55f
12:36am 2 5 mph 1012.9mb 57f 55f
12:30am 3 5 mph 1012.9mb 57f 55f
12:24am 5 6 mph 1012.9mb 57f 55f
12:18am 5 6 mph 1012.9mb 57f 55f
12:12am 5 6 mph 1013mb 57f 55f
12:06am 5 6 mph 1013.1mb 57f 55f
12:00am 6 7 mph 1013.1mb 57f 56f
Tue 07/26 11:54pm 6 7 mph 1013.2mb 57f 55f
11:48pm 6
mph
1013.2mb 57f 56f
11:42pm 5 7 mph 1013.1mb 57f 56f
11:36pm 6 7 mph 1013.1mb 57f 56f
11:30pm 7
mph
1013.1mb 57f 56f
11:24pm 6 8 mph 1013.1mb 57f 56f
11:18pm 7 8 mph 1013.1mb 57f 56f
11:12pm 6 7 mph 1013mb 57f 56f
11:06pm 6 7 mph 1013.1mb 57f 57f
11:00pm 5 6 mph 1013.1mb 57f 57f
10:54pm 5 6 mph 1013.2mb 57f 57f
10:48pm 5 7 mph 1013.3mb 57f 57f
10:42pm 6 7 mph 1013.4mb 57f 57f
10:36pm 6 7 mph 1013.4mb 57f 57f
10:30pm 5 6 mph 1013.4mb 57f 58f
10:24pm 3 5 mph 1013.4mb 57f 58f
10:18pm 2
mph
1013.5mb 57f 58f
10:12pm 2 3 mph 1013.5mb 57f 58f
10:06pm 3
mph
1013.4mb 57f 58f
10:00pm 2 3 mph 1013.4mb 57f 58f
9:54pm 1 2 mph 1013.3mb 57f 58f
9:48pm 2 3 mph 1013.2mb 57f 59f
9:42pm 2 5 mph 1013.2mb 57f 59f
9:36pm 2 3 mph 1013.1mb 57f 59f
9:30pm 3 6 mph 1013.1mb 57f 59f
9:24pm 5
mph
1013mb 57f 59f
9:18pm 3 5 mph 1013mb 57f 59f
9:12pm 3 6 mph 1012.9mb 57f 59f
9:06pm 3 5 mph 1012.9mb 57f 59f
9:00pm 2 3 mph 1013mb 57f 59f
8:54pm 2 3 mph 1012.9mb 57f 60f
8:48pm 1 3 mph 1012.7mb 57f 59f
8:42pm 3 5 mph 1012.7mb 57f 59f
8:36pm 3 5 mph 1012.6mb 57f 59f
8:30pm 3 5 mph 1012.6mb 57f 59f
8:24pm 3 5 mph 1012.4mb 57f 59f
8:18pm 2 3 mph 1012.5mb 57f -
8:12pm 3 5 mph 1012.4mb 57f -
8:06pm 5
mph
1012.5mb 57f -
8:00pm 5 6 mph - 57f -
7:54pm 6
mph
- 57f -
7:48pm 3 5 mph 1012.4mb 57f -
7:42pm 2 5 mph 1012.5mb 57f -
7:36pm 3 6 mph 1012.6mb 57f -
7:30pm 5 6 mph - 57f 59f
7:24pm 5 6 mph - 57f 59f
7:18pm 5
mph
1012.6mb 57f 60f
7:12pm 1 2 mph 1012.6mb 57f 60f
7:06pm  -  5 mph 1012.7mb 57f 61f
7:00pm  -  mph - 57f 61f
6:54pm  -  mph - 57f 61f
6:48pm 1 5 mph - - -
6:42pm 3 5 mph - - -
6:36pm 5 6 mph - - -
6:30pm 5 6 mph - 58f -
6:24pm 5 6 mph - 58f -
6:18pm 5
mph
- 58f 61f
6:12pm 2 3 mph - 58f 64f
6:06pm 3 6 mph - 58f 62f
6:00pm  -  mph - 58f 61f
5:54pm  -  mph - 58f 63f
5:48pm 5 6 mph 1012.9mb - -
5:42pm 2 3 mph 1012.9mb - -
5:36pm 3 6 mph 1012.9mb - -
5:30pm 5 7 mph - 58f 62f
5:24pm 5 6 mph - 58f 61f
5:18pm  -  mph - 58f 61f
5:12pm  -  mph - 58f 60f
5:06pm  -  mph - 58f 60f
5:00pm  -  mph - 58f -
4:54pm  -  mph - 58f -
4:48pm  -  mph - 58f -
4:42pm  -  mph - 58f -
4:36pm  -  mph - 58f -
4:30pm 1 3 mph - 58f 65f
4:24pm 2 5 mph - 58f 63f
4:18pm 3 5 mph 1013mb 58f -
4:12pm 3 8 mph 1013mb 58f -
4:06pm 5 7 mph 1013.1mb 58f -
4:00pm  -  mph 1013.1mb 57f -
3:54pm  -  mph 1013mb 57f -
3:48pm  -  mph 1012.9mb 57f -
3:42pm  -  mph 1012.9mb 57f -
3:36pm  -  mph 1012.8mb 57f -
3:30pm 3 5 mph 1012.9mb 57f 63f
3:24pm 5 8 mph 1012.9mb 57f 61f
3:18pm 7 11 mph 1012.8mb 57f -
3:12pm 10 11 mph 1012.9mb 57f -
3:06pm 8 10 mph 1012.8mb 57f -
3:00pm  -  mph - 57f 61f
2:54pm  -  mph - 57f 61f
2:48pm 8 10 mph - 57f -
2:42pm 6 8 mph - 57f -
2:36pm 8 9 mph - 57f -
2:30pm 6 8 mph 1012.8mb 57f 62f
2:24pm 7 8 mph 1012.8mb 57f 62f
2:18pm 5 9 mph 1012.8mb 57f 62f
2:12pm 7 9 mph 1012.8mb 57f 62f
2:06pm 7 8 mph 1012.8mb 57f 62f
2:00pm 7 8 mph 1012.9mb 57f 62f
1:54pm 5 7 mph 1013mb 57f 62f
1:48pm 6 8 mph 1013.1mb 57f 61f
1:42pm 7 8 mph 1013.1mb 57f 61f
1:36pm 6 9 mph 1013mb 57f 61f
1:30pm 3 7 mph 1013mb 57f 62f
1:24pm 1 5 mph 1013mb 57f 62f
1:18pm 3 5 mph 1013mb 57f 61f
1:12pm 3 5 mph 1013.1mb 57f 61f
1:06pm 5 7 mph 1013.2mb 57f 60f
1:00pm 5 6 mph 1013.2mb 57f 61f
12:54pm 5 6 mph 1013.2mb 57f 60f
12:48pm 3 5 mph 1013.1mb 57f 60f
12:42pm 3 6 mph 1013.2mb 57f 60f
12:36pm 5 6 mph 1013.3mb 58f 60f
12:30pm 5 6 mph 1013.3mb 58f 60f
12:24pm 5 6 mph 1013.3mb 58f 60f
12:18pm 1 2 mph 1013.4mb 58f 62f
12:12pm 1 2 mph 1013.5mb 58f 61f
12:06pm 1 2 mph 1013.6mb 58f 61f
12:00pm 2 3 mph 1013.7mb 58f 60f
11:54am 2 6 mph 1013.7mb 58f 59f
11:48am 3 5 mph 1013.8mb 58f 59f
11:42am 3 5 mph 1013.8mb 58f 59f
11:36am 3 5 mph 1013.8mb 58f 59f
11:30am 5 6 mph 1013.9mb 58f 58f
11:24am 3 5 mph 1013.9mb 58f 58f
11:18am 3 6 mph 1013.9mb 58f 59f
11:12am 3 6 mph 1014mb 58f 58f
11:06am 3 6 mph 1014mb 58f 58f
11:00am 2 3 mph 1014mb 58f 58f
10:54am 2 5 mph 1014mb 58f 58f
10:48am 2 5 mph 1014mb 58f 58f
10:42am 3 5 mph 1014.1mb 58f 58f
10:36am 3 5 mph 1014.1mb 58f 58f
10:30am 3 5 mph 1014.2mb 58f 58f
10:24am 3 6 mph 1014.3mb 58f 58f
10:18am 5 7 mph 1014.3mb 58f 56f
10:12am 5 7 mph 1014.4mb 58f 56f
10:06am 5 6 mph 1014.4mb 58f 56f
10:00am 5 6 mph 1014.4mb 58f 56f
9:54am 6 7 mph 1014.4mb 58f 56f
9:48am 6 7 mph 1014.4mb 58f 56f
9:42am 6 7 mph 1014.5mb 58f 56f
9:36am 5 6 mph 1014.5mb 58f 56f
9:30am 5 6 mph 1014.4mb 58f 56f
9:24am 5
mph
1014.3mb 58f 56f
9:18am 3 5 mph 1014.3mb 58f 56f
9:12am 3 5 mph 1014.4mb 58f 56f
9:06am 2 5 mph 1014.5mb 58f 56f
9:00am 1 7 mph 1014.5mb 58f 55f
8:54am 6 7 mph 1014.7mb 58f 53f
8:48am 5 6 mph 1014.7mb 58f 53f
8:42am 2
mph
1014.7mb 58f 53f
8:36am  -  2 mph 1014.8mb 58f 54f
8:30am 1 2 mph 1014.8mb 58f 53f
8:24am  -  1 mph 1014.8mb 58f 53f
8:18am 1 3 mph 1014.8mb 58f 53f
8:12am 2 3 mph 1014.8mb 58f 53f
8:06am  -  2 mph 1014.7mb 58f 54f
8:00am  -  1 mph 1014.7mb 58f 53f
7:54am  -  2 mph 1014.6mb 58f 53f
7:48am 2
mph
1014.6mb 58f 53f
7:42am 1 2 mph 1014.7mb 58f 53f
7:36am 2 3 mph 1014.6mb 58f 53f
7:30am 2 3 mph 1014.6mb 58f 53f
7:24am  -  2 mph 1014.5mb 58f 53f
7:18am  -  2 mph 1014.5mb 58f 53f
7:12am  -  2 mph 1014.5mb 58f 53f
7:06am 1 3 mph 1014.5mb 58f 52f
7:00am 2 3 mph 1014.5mb 58f 52f
6:54am 2 3 mph 1014.4mb 58f 53f
6:48am 2 3 mph 1014.5mb 58f 52f
6:42am 2 3 mph 1014.4mb 58f 53f
6:36am  -  2 mph 1014.4mb 58f 53f
6:30am 1 5 mph 1014.3mb 58f 52f
6:24am  -  5 mph 1014.3mb 58f 52f
6:18am 3 5 mph 1014.3mb 58f 53f
6:12am 3 5 mph 1014.3mb 58f 52f
6:06am 2 5 mph 1014.1mb 58f 52f
6:00am 3
mph
1014mb 58f 52f
5:54am 1 2 mph 1013.9mb 58f 53f
5:48am 2 5 mph 1013.8mb 58f 52f
5:42am 2 3 mph 1013.8mb 58f 53f
5:36am 2 5 mph 1013.9mb 58f 53f
5:30am 2 3 mph 1013.9mb 58f 53f
5:24am 2
mph
1014mb 58f 53f
5:18am  -  3 mph 1014mb 58f 53f
5:12am  -  5 mph 1014mb 58f 53f
5:06am 2
mph
1014mb 58f 53f
5:00am 1 2 mph 1014mb 58f 53f
4:54am 2 3 mph 1014mb 58f 53f
4:48am 2
mph
1014mb 58f 53f
4:42am 1 2 mph 1013.9mb 58f 53f
4:36am 2 5 mph 1013.9mb 58f 53f
4:30am 3 5 mph 1013.8mb 58f 53f
4:24am 2 3 mph 1013.8mb 58f 53f
4:18am 2 5 mph 1013.8mb 58f 53f
4:12am 3 5 mph 1013.9mb 58f 53f
4:06am 2 3 mph 1013.8mb 58f 53f
4:00am  -  2 mph 1013.7mb 58f 53f
3:54am 2
mph
1013.7mb 58f 53f
3:48am 2
mph
1013.7mb 58f 53f
3:42am 2 3 mph 1013.7mb 58f 53f
3:36am 2 3 mph 1013.7mb 58f 53f
3:30am  -  2 mph 1013.7mb 58f 53f
3:24am 2
mph
1013.7mb 58f 53f
3:18am 2 3 mph 1013.8mb 58f 53f
3:12am 2 5 mph 1013.8mb 58f 53f
3:06am 3 5 mph 1013.7mb 58f 53f
3:00am 2 3 mph 1013.8mb 58f 53f
2:54am  -  1 mph 1013.8mb 58f 53f
2:48am  -  1 mph 1013.9mb 58f 53f
2:42am 1 2 mph 1013.9mb 58f 53f
2:36am 2 3 mph 1013.9mb 58f 53f
2:30am 2 3 mph 1013.9mb 58f 53f
2:24am 3 5 mph 1013.8mb 58f 53f
2:18am 2 3 mph 1013.8mb 58f 53f
2:12am 2 3 mph 1013.9mb 59f 53f
2:06am 1 3 mph 1013.9mb 59f 53f
2:00am 2 3 mph 1013.9mb 59f 53f
1:54am 2 3 mph 1013.8mb 59f 53f
1:48am 2 3 mph 1013.8mb 59f 53f
1:42am 3
mph
1013.8mb 59f 53f
1:36am 2
mph
1013.8mb 59f 53f
1:30am 2 3 mph 1013.9mb 59f 53f
1:24am 1 2 mph 1013.9mb 59f 53f
1:18am 2 3 mph 1013.9mb 60f 53f
1:12am  -  2 mph 1014mb 60f 53f
1:06am  -  2 mph 1014.2mb 60f 53f
1:00am  -  1 mph 1014.2mb 60f 53f
12:54am  -  1 mph 1014.2mb 60f 53f
12:48am  -  2 mph 1014.3mb 60f 53f
12:42am  -  2 mph 1014.3mb 60f 53f
12:36am 1 2 mph 1014.4mb 60f 53f
12:30am  -  3 mph 1014.4mb 60f 53f
12:24am 2 3 mph 1014.4mb 60f 53f
12:18am 2 3 mph 1014.4mb 60f 53f
12:12am 2 3 mph 1014.3mb 60f 53f
12:06am 2 3 mph 1014.3mb 61f 53f
12:00am  -  3 mph 1014.3mb 61f 53f
Mon 07/25 11:54pm 5
mph
1014.2mb 61f 53f
11:48pm 2 6 mph 1014.2mb 61f 53f
11:42pm 5 6 mph 1014.1mb 61f 53f
11:36pm 5 6 mph 1014.3mb 61f 53f
11:30pm 2 6 mph 1014.4mb 61f 53f
11:24pm 2 3 mph 1014.4mb 61f 53f
11:18pm 3 5 mph 1014.4mb 61f 53f
11:12pm 2 3 mph 1014.4mb 61f 53f
11:06pm 1 3 mph 1014.4mb 61f 53f
11:00pm 2 5 mph 1014.4mb 61f 54f
10:54pm 2 5 mph 1014.4mb 61f 53f
10:48pm 2 5 mph 1014.4mb 61f -
10:42pm 3 5 mph 1014.3mb 61f -
10:36pm 2
mph
1014.3mb 61f -
10:30pm  -  1 mph 1014.3mb 61f 54f
10:24pm 2 5 mph 1014.3mb 61f 53f
10:18pm 3
mph
1014.4mb 61f 53f
10:12pm 3 5 mph 1014.3mb 61f 54f
10:06pm 1 5 mph 1014.3mb 61f 53f
10:00pm 3 5 mph 1014.3mb 61f 54f
9:54pm  -  2 mph 1014.2mb 61f 54f
9:48pm 2 6 mph 1014.2mb 61f 54f
9:42pm 6
mph
1014.2mb 61f 53f
9:36pm 5 6 mph 1014.2mb 61f 54f
9:30pm 3 6 mph 1014.2mb 61f 54f
9:24pm 5 7 mph 1014.2mb 61f 54f
9:18pm 6 7 mph 1014.1mb 61f 54f
9:12pm 5 6 mph 1014mb 60f 54f
9:06pm 6
mph
1014mb 60f 54f
9:00pm 6
mph
1014mb 60f 54f
8:54pm 5 6 mph 1014mb 60f 54f
8:48pm 5 7 mph 1014mb 60f 54f
8:42pm 6 8 mph 1014mb 60f 54f